Time;durP1;ratioP1;P1;durP2;ratioP2;P2;SDS_P1;SDS_P2;PMS_P1;PMS_P2;Temp;Humidity;BMP_temperature;BMP_pressure;BME280_temperature;BME280_humidity;BME280_pressure;Samples;Min_cycle;Max_cycle;Signal;HPM_P1;HPM_P2
2023/02/21 02:15:23;;;;;;;6.00;1.63;;;;;;;7.51;67.78;97743.38;10436622;28;20052;-77
2023/02/21 02:21:09;;;;;;;4.40;1.70;;;;;;;7.37;67.66;97743.00;10459214;28;20099;-77
2023/02/21 02:27:07;;;;;;;4.60;1.42;;;;;;;7.31;68.89;97736.22;10458993;28;20041;-77
2023/02/21 02:32:43;;;;;;;6.28;2.00;;;;;;;7.31;67.97;97747.31;10472608;28;20074;-77
2023/02/21 02:38:16;;;;;;;5.13;1.55;;;;;;;7.31;67.99;97748.06;10472217;28;20041;-77
2023/02/21 02:44:05;;;;;;;3.97;1.70;;;;;;;7.37;68.55;97742.25;10458190;28;20491;-77
2023/02/21 02:49:27;;;;;;;5.95;1.67;;;;;;;7.43;68.26;97737.19;10458236;28;20067;-77
2023/02/21 02:55:25;;;;;;;4.82;1.50;;;;;;;7.52;68.43;97719.84;10429935;28;20395;-77
2023/02/21 03:00:50;;;;;;;3.55;1.58;;;;;;;7.62;68.44;97726.19;10447059;28;20057;-77
2023/02/21 03:06:29;;;;;;;4.63;1.73;;;;;;;7.66;68.41;97718.19;10429629;28;20051;-77
2023/02/21 03:12:02;;;;;;;4.45;1.65;;;;;;;7.73;68.48;97703.47;10430337;28;20051;-77
2023/02/21 03:17:24;;;;;;;3.10;1.53;;;;;;;7.83;68.54;97711.13;10416921;28;20120;-77
2023/02/21 03:22:45;;;;;;;4.38;1.90;;;;;;;7.90;68.21;97711.00;10442731;28;20049;-77
2023/02/21 03:28:06;;;;;;;6.75;2.13;;;;;;;7.93;68.62;97703.56;10442625;28;20041;-77
2023/02/21 03:33:32;;;;;;;4.45;1.55;;;;;;;7.97;68.36;97699.03;10443211;28;20044;-77
2023/02/21 03:38:53;;;;;;;4.63;2.08;;;;;;;8.04;68.42;97694.69;10442380;28;20045;-77
2023/02/21 03:44:14;;;;;;;4.45;1.75;;;;;;;8.12;68.61;97714.75;10442605;28;20057;-77
2023/02/21 03:49:35;;;;;;;5.15;2.15;;;;;;;8.19;68.50;97708.34;10428905;28;20037;-77
2023/02/21 03:54:57;;;;;;;5.28;2.10;;;;;;;8.22;68.30;97707.19;10443581;28;20048;-77
2023/02/21 04:00:19;;;;;;;7.03;1.90;;;;;;;8.26;67.89;97679.69;10433002;28;20052;-77
2023/02/21 04:05:44;;;;;;;4.40;1.83;;;;;;;8.27;67.97;97683.91;10443686;28;20052;-78
2023/02/21 04:11:06;;;;;;;5.47;1.92;;;;;;;8.32;67.99;97685.72;10442179;28;20048;-78
2023/02/21 04:16:29;;;;;;;9.13;2.00;;;;;;;8.28;67.77;97676.31;10443234;28;20052;-77
2023/02/21 04:21:50;;;;;;;5.38;2.30;;;;;;;8.17;67.93;97663.69;10437417;28;20088;-77
2023/02/21 04:27:12;;;;;;;3.83;1.67;;;;;;;8.08;68.35;97672.75;10436451;28;20487;-77
2023/02/21 04:32:37;;;;;;;3.63;1.48;;;;;;;8.07;68.24;97665.72;10463035;28;20045;-77
2023/02/21 04:38:03;;;;;;;4.05;1.48;;;;;;;8.08;68.48;97658.84;10449838;28;20120;-77
2023/02/21 04:43:24;;;;;;;3.47;1.35;;;;;;;8.09;68.21;97654.00;10435109;28;20040;-77
2023/02/21 04:48:47;;;;;;;5.13;1.55;;;;;;;8.07;68.51;97646.25;10449115;28;20049;-77
2023/02/21 04:54:08;;;;;;;1.85;0.95;;;;;;;8.06;68.42;97644.06;10449385;28;20052;-77
2023/02/21 04:59:29;;;;;;;3.95;1.10;;;;;;;7.96;68.58;97641.97;10450549;28;20489;-77
2023/02/21 05:04:50;;;;;;;3.05;1.08;;;;;;;7.88;68.68;97635.06;10461124;28;20119;-78
2023/02/21 05:10:11;;;;;;;2.92;1.10;;;;;;;7.79;69.11;97638.53;10474839;28;20090;-77
2023/02/21 05:15:33;;;;;;;2.70;1.08;;;;;;;7.73;69.39;97647.91;10448021;28;20520;-78
2023/02/21 05:20:54;;;;;;;3.50;0.95;;;;;;;7.74;69.88;97656.97;10447918;28;20048;-78
2023/02/21 05:26:16;;;;;;;3.65;1.33;;;;;;;7.79;69.83;97663.56;10450557;28;20131;-78
2023/02/21 05:31:37;;;;;;;3.08;0.90;;;;;;;7.74;69.86;97643.81;10452160;28;20040;-78
2023/02/21 05:36:59;;;;;;;2.67;0.77;;;;;;;7.79;69.53;97652.44;10461593;28;20029;-79
2023/02/21 05:42:21;;;;;;;2.88;0.80;;;;;;;7.79;69.70;97663.56;10460476;28;20048;-78
2023/02/21 05:47:43;;;;;;;3.63;1.10;;;;;;;7.82;70.05;97659.63;10435536;28;20075;-78
2023/02/21 05:53:08;;;;;;;1.52;1.05;;;;;;;7.76;70.03;97657.13;10437857;28;20033;-79
2023/02/21 05:58:30;;;;;;;2.58;0.75;;;;;;;7.79;70.10;97677.44;10451972;28;20493;-78
2023/02/21 06:03:51;;;;;;;2.63;1.10;;;;;;;7.94;70.26;97688.34;10438958;28;20033;-78
2023/02/21 06:09:13;;;;;;;1.63;0.70;;;;;;;8.04;69.80;97689.84;10456531;28;20482;-77
2023/02/21 06:14:35;;;;;;;2.88;0.80;;;;;;;8.08;69.59;97697.03;10461989;28;20049;-78
2023/02/21 06:19:57;;;;;;;4.22;0.80;;;;;;;8.16;69.63;97703.94;10454653;28;20491;-78
2023/02/21 06:25:18;;;;;;;3.08;1.13;;;;;;;8.28;69.38;97704.84;10436141;28;20091;-78
2023/02/21 06:30:40;;;;;;;3.45;1.30;;;;;;;8.31;69.29;97709.28;10450354;28;20046;-78
2023/02/21 06:36:04;;;;;;;3.30;1.27;;;;;;;8.44;69.23;97721.34;10448821;28;20040;-78
2023/02/21 06:41:30;;;;;;;3.08;1.20;;;;;;;8.43;68.79;97719.88;10436631;28;20055;-78
2023/02/21 06:46:53;;;;;;;2.80;1.00;;;;;;;8.55;68.94;97709.66;10448877;28;20124;-77
2023/02/21 06:52:15;;;;;;;2.43;1.10;;;;;;;8.98;68.21;97715.56;10446096;28;20051;-79
2023/02/21 06:57:36;;;;;;;6.90;1.35;;;;;;;9.23;67.40;97724.34;10452615;28;20443;-78
2023/02/21 07:02:57;;;;;;;3.35;1.15;;;;;;;9.33;66.48;97727.88;10469314;28;20055;-78
2023/02/21 07:08:18;;;;;;;3.03;1.33;;;;;;;9.53;66.68;97725.06;10469425;28;20051;-76
2023/02/21 07:13:40;;;;;;;4.85;1.30;;;;;;;9.83;65.91;97732.78;10469169;28;20045;-79
2023/02/21 07:19:01;;;;;;;5.43;1.40;;;;;;;10.11;65.73;97736.06;10469204;28;20041;-78
2023/02/21 07:24:22;;;;;;;2.40;1.10;;;;;;;10.17;64.23;97737.25;10469243;28;20481;-77
2023/02/21 07:29:46;;;;;;;3.78;1.80;;;;;;;10.56;62.92;97728.72;10469984;28;20481;-78
2023/02/21 07:35:07;;;;;;;4.82;1.58;;;;;;;10.43;63.61;97707.66;10483364;28;20494;-79
2023/02/21 07:40:29;;;;;;;4.00;1.38;;;;;;;10.92;62.45;97722.03;10469876;28;20052;-78
2023/02/21 07:45:50;;;;;;;3.97;1.27;;;;;;;13.95;59.05;97742.25;10471790;28;20151;-78
2023/02/21 07:51:11;;;;;;;4.10;1.40;;;;;;;12.71;58.58;97766.75;10470679;28;20060;-78
2023/02/21 07:56:32;;;;;;;2.53;1.25;;;;;;;11.99;58.36;97763.78;10471294;28;20040;-78
2023/02/21 08:01:54;;;;;;;5.95;1.80;;;;;;;11.33;58.93;97772.16;10470068;28;20060;-76
2023/02/21 08:07:15;;;;;;;6.93;1.63;;;;;;;11.10;60.40;97781.91;10442321;28;20041;-78
2023/02/21 08:12:36;;;;;;;3.30;1.50;;;;;;;10.95;60.43;97781.53;10429165;28;20037;-78
2023/02/21 08:17:58;;;;;;;4.00;1.50;;;;;;;10.82;60.38;97782.81;10415380;28;20045;-78
2023/02/21 08:23:19;;;;;;;5.03;1.58;;;;;;;10.74;60.74;97780.19;10428938;28;20131;-78
2023/02/21 08:28:41;;;;;;;4.35;1.55;;;;;;;10.84;60.66;97794.84;10432740;28;20120;-78
2023/02/21 08:34:02;;;;;;;3.88;1.50;;;;;;;10.88;60.70;97800.69;10479060;28;20468;-78
2023/02/21 08:39:23;;;;;;;4.28;1.60;;;;;;;11.00;60.28;97811.19;10455743;28;20424;-77
2023/02/21 08:44:47;;;;;;;2.92;1.58;;;;;;;11.04;60.16;97811.47;10469086;28;20045;-78
2023/02/21 08:50:08;;;;;;;3.90;1.90;;;;;;;11.29;60.42;97811.75;10455891;28;20045;-78
2023/02/21 08:55:29;;;;;;;6.05;1.85;;;;;;;11.62;59.91;97817.38;10470161;28;20398;-78
2023/02/21 09:00:50;;;;;;;4.43;2.40;;;;;;;12.30;58.94;97809.09;10469876;28;20102;-78
2023/02/21 09:06:12;;;;;;;8.13;2.05;;;;;;;13.77;56.56;97803.69;10487731;28;20047;-78
2023/02/21 09:11:33;;;;;;;4.55;1.63;;;;;;;15.79;52.89;97780.41;10478265;28;20119;-79
2023/02/21 09:16:54;;;;;;;6.32;2.38;;;;;;;21.22;42.65;97803.50;10477143;28;20041;-80
2023/02/21 09:22:17;;;;;;;6.47;2.72;;;;;;;20.86;41.82;97801.13;10502719;28;20045;-79
2023/02/21 09:27:38;;;;;;;5.37;1.87;;;;;;;20.81;40.10;97799.56;10488909;28;20541;-80
2023/02/21 09:32:59;;;;;;;3.35;1.80;;;;;;;19.76;40.27;97810.50;10474565;28;20102;-79
2023/02/21 09:38:20;;;;;;;2.40;1.35;;;;;;;18.69;42.40;97817.41;10474284;28;20543;-78
2023/02/21 09:43:46;;;;;;;4.07;1.60;;;;;;;17.27;43.25;97809.63;10478901;28;20474;-78
2023/02/21 09:49:22;;;;;;;2.67;1.45;;;;;;;15.86;44.74;97830.03;10480804;28;20040;-78
2023/02/21 09:54:46;;;;;;;2.63;1.65;;;;;;;14.78;46.04;97838.66;10493495;28;20036;-78
2023/02/21 10:00:31;;;;;;;2.67;1.27;;;;;;;14.16;47.40;97839.50;10464589;28;20060;-78
2023/02/21 10:05:53;;;;;;;5.90;1.60;;;;;;;13.78;48.13;97844.41;10477641;28;20410;-77
2023/02/21 10:11:21;;;;;;;3.45;1.70;;;;;;;13.50;48.28;97860.34;10502569;28;20393;-78
2023/02/21 10:16:48;;;;;;;5.30;1.48;;;;;;;13.25;48.97;97858.22;10481668;28;20067;-78
2023/02/21 10:22:13;;;;;;;2.92;1.52;;;;;;;13.10;49.77;97865.03;10503485;28;20044;-77
2023/02/21 10:27:34;;;;;;;4.82;1.40;;;;;;;12.89;50.09;97871.50;10480004;28;20075;-78
2023/02/21 10:32:55;;;;;;;5.30;1.98;;;;;;;12.84;50.30;97869.78;10478806;28;20036;-76
2023/02/21 10:38:19;;;;;;;4.47;1.50;;;;;;;13.00;50.57;97870.03;10509916;28;20067;-78
2023/02/21 10:43:43;;;;;;;4.83;1.60;;;;;;;13.14;50.78;97868.09;10496569;28;20076;-77
2023/02/21 10:49:46;;;;;;;2.42;1.40;;;;;;;13.14;51.43;97878.56;10481527;28;20046;-77
2023/02/21 10:55:16;;;;;;;3.47;1.55;;;;;;;13.14;51.23;97873.69;10509167;28;20119;-78
2023/02/21 11:00:52;;;;;;;3.17;1.48;;;;;;;13.21;51.62;97857.97;10511630;28;20049;-77
2023/02/21 11:06:38;;;;;;;5.10;1.58;;;;;;;13.25;51.70;97861.03;10492708;28;20090;-76
2023/02/21 11:12:01;;;;;;;3.92;1.73;;;;;;;13.43;51.44;97864.91;10507773;28;20047;-77
2023/02/21 11:17:28;;;;;;;9.27;1.65;;;;;;;13.56;51.46;97860.72;10479637;28;20040;-77
2023/02/21 11:22:50;;;;;;;3.63;1.60;;;;;;;13.45;51.52;97861.47;10480593;28;20496;-77
2023/02/21 11:28:13;;;;;;;4.03;1.73;;;;;;;13.18;52.20;97857.09;10478917;28;20056;-78
2023/02/21 11:33:56;;;;;;;3.05;1.50;;;;;;;12.81;52.29;97847.84;10509603;28;20059;-78
2023/02/21 11:39:26;;;;;;;3.45;1.45;;;;;;;12.50;52.72;97843.22;10482128;28;20055;-78
2023/02/21 11:44:48;;;;;;;4.72;1.48;;;;;;;12.38;53.53;97842.47;10465503;28;20049;-78
2023/02/21 11:50:22;;;;;;;6.78;1.60;;;;;;;12.42;53.55;97841.97;10442821;28;20041;-78
2023/02/21 11:55:57;;;;;;;3.42;1.60;;;;;;;12.30;53.91;97847.56;10476239;28;20040;-78
2023/02/21 12:01:23;;;;;;;3.03;1.60;;;;;;;12.22;54.09;97842.19;10461258;28;20040;-77
2023/02/21 12:06:56;;;;;;;3.90;2.10;;;;;;;12.22;54.55;97817.00;10466811;28;20087;-81
2023/02/21 12:12:34;;;;;;;5.63;2.20;;;;;;;12.22;54.89;97831.00;10472483;28;20413;-81
2023/02/21 12:18:13;;;;;;;5.13;2.20;;;;;;;12.29;55.01;97840.50;10472670;28;20161;-77
2023/02/21 12:23:45;;;;;;;5.03;1.73;;;;;;;12.32;54.98;97830.88;10483813;28;20522;-77
2023/02/21 12:29:24;;;;;;;6.50;1.95;;;;;;;12.45;55.05;97816.31;10470144;28;20444;-77
2023/02/21 12:35:02;;;;;;;5.32;2.05;;;;;;;12.63;54.97;97813.88;10483339;28;20399;-78
2023/02/21 12:40:38;;;;;;;6.85;2.40;;;;;;;12.66;54.70;97815.47;10493910;28;20048;-81
2023/02/21 12:46:27;;;;;;;5.35;2.10;;;;;;;12.48;55.07;97817.16;10463615;28;20052;-79
2023/02/21 12:51:56;;;;;;;3.25;1.58;;;;;;;12.45;55.15;97807.16;10469306;28;20067;-80
2023/02/21 12:57:27;;;;;;;4.38;1.48;;;;;;;12.42;55.53;97806.31;10482617;28;20037;-80
2023/02/21 13:03:16;;;;;;;4.30;1.70;;;;;;;12.48;55.49;97783.56;10481155;28;20037;-79
2023/02/21 13:08:58;;;;;;;4.80;1.48;;;;;;;12.51;55.18;97785.88;10496310;28;20040;-80
2023/02/21 13:14:25;;;;;;;4.60;1.80;;;;;;;12.52;55.21;97775.41;10481657;28;20045;-80
2023/02/21 13:19:53;;;;;;;4.85;1.67;;;;;;;12.65;55.18;97779.69;10468937;28;20040;-82
2023/02/21 13:25:36;;;;;;;2.38;1.08;;;;;;;12.63;55.01;97774.66;10489126;28;20032;-81
2023/02/21 13:30:59;;;;;;;2.83;1.08;;;;;;;12.51;55.20;97782.34;10512129;28;20119;-80
2023/02/21 13:36:41;;;;;;;1.65;1.00;;;;;;;12.35;55.53;97784.16;10453290;28;20051;-81
2023/02/21 13:42:08;;;;;;;3.22;0.95;;;;;;;12.26;55.71;97789.28;10475624;28;20048;-81
2023/02/21 13:48:10;;;;;;;2.95;1.38;;;;;;;12.21;55.71;97773.56;10508988;28;20055;-80
2023/02/21 13:53:54;;;;;;;4.30;1.40;;;;;;;12.25;55.64;97765.41;10506960;28;20111;-79
2023/02/21 13:59:25;;;;;;;5.53;1.55;;;;;;;12.25;55.83;97757.00;10495484;28;20431;-80
2023/02/21 14:04:59;;;;;;;2.90;1.00;;;;;;;12.19;56.04;97759.44;10465850;28;20048;-79
2023/02/21 14:10:26;;;;;;;2.42;1.08;;;;;;;12.21;55.68;97744.84;10453568;28;20045;-81
2023/02/21 14:15:50;;;;;;;2.47;1.15;;;;;;;12.29;55.94;97739.75;10454052;28;20045;-79
2023/02/21 14:21:29;;;;;;;4.53;1.00;;;;;;;12.21;55.68;97756.78;10467717;28;20487;-79
2023/02/21 14:26:55;;;;;;;2.05;0.82;;;;;;;12.14;55.79;97757.00;10441697;28;20410;-80
2023/02/21 14:32:23;;;;;;;1.95;0.82;;;;;;;12.11;56.08;97753.34;10468328;28;20048;-79
2023/02/21 14:38:02;;;;;;;2.40;1.00;;;;;;;12.13;56.00;97761.88;10471208;28;20052;-80
2023/02/21 14:43:43;;;;;;;2.72;1.20;;;;;;;12.01;56.07;97753.47;10482653;28;20047;-78
2023/02/21 14:49:17;;;;;;;2.13;1.30;;;;;;;11.92;56.42;97761.94;10478726;28;20056;-79
2023/02/21 14:55:06;;;;;;;4.18;1.00;;;;;;;11.82;56.37;97764.84;10505504;28;20048;-81
2023/02/21 15:00:59;;;;;;;1.85;1.08;;;;;;;11.66;56.86;97752.59;10506333;28;20394;-80
2023/02/21 15:06:23;;;;;;;3.72;1.40;;;;;;;11.64;56.85;97755.28;10490324;28;20057;-81
2023/02/21 15:11:44;;;;;;;;;;;;;;;11.61;57.56;97754.41;10493629;28;20375;-80
2023/02/21 15:17:13;;;;;;;3.72;2.00;;;;;;;11.58;57.56;97752.09;10506175;28;19927;-80
2023/02/21 15:22:34;;;;;;;3.47;2.10;;;;;;;11.59;57.47;97745.91;10478576;28;20074;-80
2023/02/21 15:27:57;;;;;;;2.75;1.40;;;;;;;11.54;57.39;97749.78;10490879;28;20045;-79
2023/02/21 15:33:19;;;;;;;3.40;1.77;;;;;;;11.46;57.88;97744.38;10477148;28;20040;-80
2023/02/21 15:38:51;;;;;;;6.93;2.40;;;;;;;11.45;57.92;97747.78;10477465;28;20036;-79
2023/02/21 15:44:19;;;;;;;4.70;1.55;;;;;;;11.38;58.37;97748.72;10492568;28;20053;-80
2023/02/21 15:49:42;;;;;;;2.00;1.10;;;;;;;11.33;58.41;97747.00;10489282;28;20489;-80
2023/02/21 15:55:18;;;;;;;3.40;1.27;;;;;;;11.27;58.41;97755.72;10489179;28;20046;-81
2023/02/21 16:00:40;;;;;;;4.65;1.60;;;;;;;11.23;58.75;97749.88;10502367;28;20406;-79
2023/02/21 16:06:12;;;;;;;2.65;1.50;;;;;;;11.21;59.30;97751.81;10459993;28;21105;-76
2023/02/21 16:11:42;;;;;;;3.95;1.70;;;;;;;11.16;59.34;97762.00;10488658;28;20089;-76
2023/02/21 16:17:12;;;;;;;4.35;2.20;;;;;;;11.11;59.22;97772.19;10507056;28;20041;-77
2023/02/21 16:22:37;;;;;;;4.65;2.35;;;;;;;11.02;59.63;97772.97;10508253;28;20048;-77
2023/02/21 16:28:18;;;;;;;5.95;3.95;;;;;;;10.99;59.69;97773.41;10459359;28;20106;-77
2023/02/21 16:33:38;;;;;;;6.53;2.83;;;;;;;10.95;60.10;97778.75;10442760;28;20041;-77
2023/02/21 16:38:59;;;;;;;4.75;2.92;;;;;;;10.91;60.43;97775.69;10459696;28;20048;-76
2023/02/21 16:44:20;;;;;;;6.43;3.33;;;;;;;10.89;60.94;97774.22;10462941;28;20553;-76
2023/02/21 16:49:42;;;;;;;6.55;3.03;;;;;;;10.83;60.85;97775.88;10461858;28;20044;-76
2023/02/21 16:55:03;;;;;;;6.35;3.45;;;;;;;10.76;60.89;97785.19;10441087;28;20407;-75
2023/02/21 17:00:24;;;;;;;9.77;3.92;;;;;;;10.73;61.36;97789.91;10449923;28;20037;-77
2023/02/21 17:05:45;;;;;;;7.45;3.05;;;;;;;10.71;61.55;97791.81;10458547;28;20379;-77
2023/02/21 17:11:07;;;;;;;7.32;3.10;;;;;;;10.66;61.58;97785.22;10493947;28;20048;-78
2023/02/21 17:16:27;;;;;;;5.25;2.50;;;;;;;10.66;61.61;97792.88;10480488;28;20048;-79
2023/02/21 17:21:48;;;;;;;7.47;2.75;;;;;;;10.61;61.85;97803.00;10480968;28;20045;-76
2023/02/21 17:27:09;;;;;;;6.70;2.95;;;;;;;10.51;61.86;97791.88;10505836;28;20044;-76
2023/02/21 17:32:30;;;;;;;5.10;2.65;;;;;;;10.50;62.09;97806.44;10479973;28;20048;-78
2023/02/21 17:37:52;;;;;;;4.30;2.42;;;;;;;10.50;62.21;97812.03;10462689;28;20103;-77
2023/02/21 17:43:14;;;;;;;5.07;2.38;;;;;;;10.41;62.86;97810.72;10477589;28;20102;-77
2023/02/21 17:48:36;;;;;;;6.83;2.80;;;;;;;10.35;62.76;97813.13;10475294;28;20033;-77
2023/02/21 17:53:57;;;;;;;5.70;3.42;;;;;;;10.32;62.49;97808.72;10474520;28;20040;-76
2023/02/21 17:59:18;;;;;;;5.80;2.80;;;;;;;10.21;62.89;97803.72;10460695;28;20037;-75
2023/02/21 18:04:39;;;;;;;4.55;2.40;;;;;;;10.01;63.05;97798.19;10447900;28;20095;-76
2023/02/21 18:10:02;;;;;;;5.35;2.63;;;;;;;9.87;63.63;97794.41;10447293;28;20045;-76
2023/02/21 18:15:26;;;;;;;7.53;3.60;;;;;;;9.78;63.73;97797.94;10459898;28;20399;-76
2023/02/21 18:20:46;;;;;;;9.75;4.03;;;;;;;9.66;63.97;97794.31;10460377;28;20041;-76
2023/02/21 18:26:07;;;;;;;10.18;5.60;;;;;;;9.68;64.21;97788.88;10446433;28;20045;-77
2023/02/21 18:31:28;;;;;;;5.40;3.20;;;;;;;9.79;64.41;97798.69;10446084;28;20430;-76
2023/02/21 18:36:50;;;;;;;4.80;2.72;;;;;;;9.78;64.26;97800.75;10459440;28;20056;-76
2023/02/21 18:42:10;;;;;;;4.20;2.55;;;;;;;9.71;64.00;97793.25;10432504;28;20434;-75
2023/02/21 18:47:33;;;;;;;6.57;3.88;;;;;;;9.66;64.26;97802.66;10461773;28;20049;-77
2023/02/21 18:52:54;;;;;;;7.05;2.95;;;;;;;9.59;64.40;97809.13;10449914;28;20107;-78
2023/02/21 18:58:15;;;;;;;8.70;4.40;;;;;;;9.45;64.71;97806.75;10442552;28;20509;-78
2023/02/21 19:03:36;;;;;;;9.35;3.85;;;;;;;9.33;64.88;97799.56;10447160;28;20060;-77
2023/02/21 19:08:57;;;;;;;7.32;3.63;;;;;;;9.24;64.91;97803.06;10431704;28;20037;-75
2023/02/21 19:14:18;;;;;;;8.00;4.47;;;;;;;9.13;65.11;97793.97;10435247;28;20044;-77
2023/02/21 19:19:39;;;;;;;9.10;4.22;;;;;;;9.20;65.46;97803.53;10433284;28;20048;-76
2023/02/21 19:25:00;;;;;;;7.45;3.55;;;;;;;9.24;65.39;97823.31;10455807;28;20041;-78
2023/02/21 19:30:22;;;;;;;5.68;3.88;;;;;;;9.26;65.52;97815.09;10463343;28;20044;-78
2023/02/21 19:35:44;;;;;;;9.23;4.03;;;;;;;9.16;65.24;97819.91;10462768;28;20052;-77
2023/02/21 19:41:06;;;;;;;8.23;4.30;;;;;;;9.02;65.45;97811.25;10447068;28;20040;-78
2023/02/21 19:46:27;;;;;;;6.30;3.72;;;;;;;8.94;65.71;97834.97;10444937;28;20052;-77
2023/02/21 19:51:50;;;;;;;6.72;3.15;;;;;;;8.95;65.44;97828.81;10428217;28;20044;-77
2023/02/21 19:57:12;;;;;;;6.28;3.70;;;;;;;9.02;65.83;97833.53;10454740;28;20041;-78
2023/02/21 20:02:33;;;;;;;7.35;4.05;;;;;;;9.11;65.64;97851.59;10452562;28;20371;-77
2023/02/21 20:07:54;;;;;;;8.18;3.95;;;;;;;9.20;65.30;97848.09;10454082;28;20045;-78
2023/02/21 20:13:15;;;;;;;8.57;3.60;;;;;;;9.28;64.95;97857.06;10428406;28;20116;-77
2023/02/21 20:18:36;;;;;;;6.53;3.10;;;;;;;9.37;64.98;97853.53;10443771;28;20037;-78
2023/02/21 20:23:58;;;;;;;7.13;3.20;;;;;;;9.42;64.52;97858.09;10448369;28;20482;-78
2023/02/21 20:29:19;;;;;;;6.65;3.20;;;;;;;9.43;64.66;97856.75;10446481;28;20037;-77
2023/02/21 20:34:40;;;;;;;4.97;2.92;;;;;;;9.42;64.24;97858.09;10457510;28;20564;-78
2023/02/21 20:40:04;;;;;;;4.97;2.38;;;;;;;9.40;64.68;97871.88;10452024;28;20032;-77
2023/02/21 20:45:24;;;;;;;4.30;2.20;;;;;;;9.43;64.10;97861.59;10449248;28;20066;-78
2023/02/21 20:50:46;;;;;;;7.30;2.60;;;;;;;9.39;64.18;97864.84;10444513;28;20433;-78
2023/02/21 20:56:07;;;;;;;4.55;2.33;;;;;;;9.33;63.90;97861.59;10473936;28;20049;-77
2023/02/21 21:01:28;;;;;;;5.40;2.13;;;;;;;9.40;63.75;97860.72;10463066;28;20529;-78
2023/02/21 21:06:50;;;;;;;7.15;2.30;;;;;;;9.48;63.63;97854.28;10452567;28;20509;-77
2023/02/21 21:12:13;;;;;;;5.78;2.70;;;;;;;9.56;63.57;97866.03;10466299;28;20040;-77
2023/02/21 21:17:40;;;;;;;5.50;3.42;;;;;;;9.58;63.33;97861.34;10453507;28;20044;-77
2023/02/21 21:23:01;;;;;;;6.75;2.88;;;;;;;9.64;63.22;97866.59;10463187;28;20502;-78
2023/02/21 21:28:22;;;;;;;6.38;3.17;;;;;;;9.64;63.37;97866.59;10464712;28;20102;-77
2023/02/21 21:33:46;;;;;;;4.53;2.42;;;;;;;9.67;63.44;97866.19;10480341;28;20509;-77
2023/02/21 21:39:07;;;;;;;6.57;3.53;;;;;;;9.71;62.44;97866.47;10464306;28;20036;-78
2023/02/21 21:44:28;;;;;;;5.32;3.30;;;;;;;9.73;62.93;97868.66;10447258;28;20387;-77
2023/02/21 21:49:49;;;;;;;6.13;3.47;;;;;;;9.72;63.20;97867.91;10433127;28;20037;-78
2023/02/21 21:55:23;;;;;;;7.20;3.58;;;;;;;9.70;63.27;97876.16;10460491;28;20044;-77
2023/02/21 22:00:45;;;;;;;7.65;4.63;;;;;;;9.64;63.14;97870.13;10463901;28;20065;-78
2023/02/21 22:06:09;;;;;;;8.23;3.97;;;;;;;9.64;63.30;97863.81;10452355;28;20036;-77
2023/02/21 22:11:31;;;;;;;8.00;4.43;;;;;;;9.65;63.18;97856.91;10463901;28;20090;-77
2023/02/21 22:16:53;;;;;;;6.60;3.75;;;;;;;9.66;63.54;97858.41;10449535;28;20047;-77
2023/02/21 22:22:14;;;;;;;11.13;4.20;;;;;;;9.63;63.58;97857.50;10463744;28;20053;-77
2023/02/21 22:27:36;;;;;;;7.38;3.20;;;;;;;9.65;63.55;97860.47;10463363;28;20040;-77
2023/02/21 22:32:56;;;;;;;6.10;3.35;;;;;;;9.68;63.51;97861.34;10463228;28;20040;-78
2023/02/21 22:38:18;;;;;;;6.15;2.60;;;;;;;9.71;63.27;97860.88;10463413;28;20090;-77
2023/02/21 22:43:38;;;;;;;5.95;2.70;;;;;;;9.74;63.24;97865.28;10463135;28;20072;-77
2023/02/21 22:48:59;;;;;;;5.53;2.67;;;;;;;9.80;63.20;97867.78;10465050;28;20067;-77
2023/02/21 22:54:20;;;;;;;6.03;3.13;;;;;;;9.79;63.22;97857.97;10429463;28;20041;-78
2023/02/21 22:59:42;;;;;;;6.75;3.20;;;;;;;9.79;63.11;97857.22;10430429;28;20037;-77
2023/02/21 23:05:04;;;;;;;6.85;3.10;;;;;;;9.77;62.85;97852.25;10417270;28;20041;-77
2023/02/21 23:10:26;;;;;;;5.32;2.88;;;;;;;9.80;62.89;97842.69;10444306;28;20055;-77
2023/02/21 23:15:47;;;;;;;5.28;3.03;;;;;;;9.73;62.98;97849.16;10457533;28;20048;-77
2023/02/21 23:21:08;;;;;;;4.03;2.50;;;;;;;9.74;63.23;97858.97;10459010;28;20053;-77
2023/02/21 23:26:29;;;;;;;5.40;2.83;;;;;;;9.78;63.00;97847.41;10443484;28;20049;-77
2023/02/21 23:31:51;;;;;;;6.05;2.78;;;;;;;9.78;63.22;97864.84;10430234;28;20049;-77
2023/02/21 23:37:14;;;;;;;5.95;3.33;;;;;;;9.78;62.70;97852.97;10430861;28;20037;-77
2023/02/21 23:42:35;;;;;;;5.40;2.92;;;;;;;9.77;63.08;97848.72;10458397;28;20044;-77
2023/02/21 23:47:56;;;;;;;4.95;3.00;;;;;;;9.75;62.99;97850.03;10428630;28;20422;-77
2023/02/21 23:53:21;;;;;;;7.53;3.65;;;;;;;9.76;63.21;97861.94;10442458;28;20123;-77
2023/02/21 23:58:45;;;;;;;5.18;3.15;;;;;;;9.71;63.34;97844.16;10442392;28;20045;-77
